createdAt,value
2022-08-19T00:02:09.430Z,18.80
2022-08-19T00:04:37.567Z,18.80
2022-08-19T00:07:07.999Z,18.80
2022-08-19T00:09:35.548Z,18.80
2022-08-19T00:12:03.784Z,18.70
2022-08-19T00:14:32.186Z,18.70
2022-08-19T00:16:59.882Z,18.60
2022-08-19T00:19:27.276Z,18.70
2022-08-19T00:21:56.095Z,18.70
2022-08-19T00:24:23.574Z,18.70
2022-08-19T00:26:51.521Z,18.60
2022-08-19T00:29:22.970Z,18.60
2022-08-19T00:31:54.446Z,18.50
2022-08-19T00:34:24.307Z,18.50
2022-08-19T00:36:51.503Z,18.50
2022-08-19T00:39:19.042Z,18.50
2022-08-19T00:41:50.463Z,18.60
2022-08-19T00:44:28.203Z,18.60
2022-08-19T00:46:59.886Z,18.60
2022-08-19T00:49:52.048Z,18.60
2022-08-19T00:52:35.780Z,18.60
2022-08-19T00:55:09.560Z,18.40
2022-08-19T00:57:45.419Z,18.40
2022-08-19T01:00:18.392Z,18.40
2022-08-19T01:02:45.775Z,18.40
2022-08-19T01:05:22.375Z,18.50
2022-08-19T01:07:51.760Z,18.50
2022-08-19T01:10:27.757Z,18.40
2022-08-19T01:12:58.917Z,18.40
2022-08-19T01:15:34.923Z,18.40
2022-08-19T01:18:11.897Z,18.40
2022-08-19T01:20:41.321Z,18.30
2022-08-19T01:23:09.084Z,18.30
2022-08-19T01:25:56.665Z,18.30
2022-08-19T01:28:34.009Z,18.30
2022-08-19T01:31:01.944Z,18.40
2022-08-19T01:33:35.610Z,18.30
2022-08-19T01:36:23.303Z,18.40
2022-08-19T01:38:50.389Z,18.40
2022-08-19T01:41:19.393Z,18.50
2022-08-19T01:44:13.780Z,18.40
2022-08-19T01:46:35.045Z,18.40
2022-08-19T01:49:06.525Z,18.40
2022-08-19T01:51:38.451Z,18.50
2022-08-19T01:54:13.456Z,18.60
2022-08-19T01:56:40.461Z,18.60
2022-08-19T01:59:17.137Z,18.60
2022-08-19T02:01:44.723Z,18.60
2022-08-19T02:04:12.321Z,18.60
2022-08-19T02:06:40.355Z,18.60
2022-08-19T02:09:09.640Z,18.60
2022-08-19T02:11:38.981Z,18.60
2022-08-19T02:14:09.049Z,18.70
2022-08-19T02:16:38.221Z,18.70
2022-08-19T02:19:06.261Z,18.60
2022-08-19T02:21:34.134Z,18.60
2022-08-19T02:24:01.125Z,18.70
2022-08-19T02:26:28.154Z,18.60
2022-08-19T02:28:56.235Z,18.60
2022-08-19T02:31:26.805Z,18.60
2022-08-19T02:33:56.892Z,18.60
2022-08-19T02:36:26.365Z,18.60
2022-08-19T02:38:55.563Z,18.60
2022-08-19T02:41:32.098Z,18.60
2022-08-19T02:44:29.303Z,18.60
2022-08-19T02:46:53.190Z,18.60
2022-08-19T02:49:20.539Z,18.60
2022-08-19T02:51:48.344Z,18.60
2022-08-19T02:54:16.371Z,18.60
2022-08-19T02:56:45.227Z,18.50
2022-08-19T02:59:13.199Z,18.50
2022-08-19T03:01:43.336Z,18.50
2022-08-19T03:04:16.431Z,18.50
2022-08-19T03:06:48.107Z,18.50
2022-08-19T03:09:17.836Z,18.50
2022-08-19T03:11:45.269Z,18.60
2022-08-19T03:14:14.156Z,18.50
2022-08-19T03:16:50.773Z,18.40
2022-08-19T03:19:24.222Z,18.50
2022-08-19T03:21:53.086Z,18.40
2022-08-19T03:24:21.174Z,18.40
2022-08-19T03:26:58.577Z,18.40
2022-08-19T03:29:31.623Z,18.50
2022-08-19T03:32:07.443Z,18.50
2022-08-19T03:34:51.844Z,18.50
2022-08-19T03:37:18.818Z,18.40
2022-08-19T03:39:45.752Z,18.50
2022-08-19T03:42:32.753Z,18.50
2022-08-19T03:45:00.291Z,18.40
2022-08-19T03:47:27.333Z,18.50
2022-08-19T03:49:54.309Z,18.50
2022-08-19T03:52:21.265Z,18.50
2022-08-19T03:54:48.259Z,18.50
2022-08-19T03:57:15.191Z,18.50
2022-08-19T03:59:42.204Z,18.50
2022-08-19T04:02:13.171Z,18.50
2022-08-19T04:04:44.612Z,18.50
2022-08-19T04:07:16.967Z,18.40
2022-08-19T04:09:44.395Z,18.50
2022-08-19T04:12:11.296Z,18.50
2022-08-19T04:14:38.260Z,18.50
2022-08-19T04:17:05.683Z,18.50
2022-08-19T04:19:36.164Z,18.50
2022-08-19T04:22:04.791Z,18.50
2022-08-19T04:24:32.219Z,18.50
2022-08-19T04:27:03.492Z,18.60
2022-08-19T04:29:31.241Z,18.60
2022-08-19T04:32:00.413Z,18.60
2022-08-19T04:35:01.550Z,18.60
2022-08-19T04:37:34.714Z,18.50
2022-08-19T04:40:24.792Z,18.50
2022-08-19T04:42:52.088Z,18.50
2022-08-19T04:45:19.305Z,18.40
2022-08-19T04:47:58.340Z,18.50
2022-08-19T04:50:27.758Z,18.50
2022-08-19T04:52:56.589Z,18.60
2022-08-19T04:55:26.813Z,18.60
2022-08-19T04:57:55.588Z,18.60
2022-08-19T05:00:23.642Z,18.60
2022-08-19T05:02:50.756Z,18.60
2022-08-19T05:05:18.441Z,18.60
2022-08-19T05:07:45.431Z,18.60
2022-08-19T05:10:13.613Z,18.60
2022-08-19T05:12:40.860Z,18.70
2022-08-19T05:15:09.593Z,18.70
2022-08-19T05:17:39.016Z,18.70
2022-08-19T05:20:27.797Z,18.70
2022-08-19T05:22:56.668Z,18.70
2022-08-19T05:25:24.205Z,18.70
2022-08-19T05:27:51.140Z,18.70
2022-08-19T05:30:30.202Z,18.70
2022-08-19T05:33:06.117Z,18.70
2022-08-19T05:35:34.592Z,18.70
2022-08-19T05:38:01.907Z,18.80
2022-08-19T05:40:29.413Z,18.80
2022-08-19T05:42:56.844Z,18.90
2022-08-19T05:45:23.801Z,18.90
2022-08-19T05:47:50.709Z,18.90
2022-08-19T05:50:18.415Z,19.00
2022-08-19T05:52:50.696Z,19.00
2022-08-19T05:55:21.059Z,19.00
2022-08-19T05:57:48.351Z,19.00
2022-08-19T06:00:16.151Z,19.00
2022-08-19T06:02:43.168Z,19.00
2022-08-19T06:05:11.624Z,19.00
2022-08-19T06:07:40.647Z,19.00
2022-08-19T06:10:12.276Z,19.10
2022-08-19T06:12:40.334Z,19.20
2022-08-19T06:15:14.333Z,19.20
2022-08-19T06:17:42.826Z,19.20
2022-08-19T06:20:15.876Z,19.30
2022-08-19T06:22:47.737Z,19.40
2022-08-19T06:25:16.300Z,19.40
2022-08-19T06:28:11.448Z,19.30
2022-08-19T06:30:31.019Z,19.30
2022-08-19T06:32:58.066Z,19.30
2022-08-19T06:35:26.198Z,19.30
2022-08-19T06:37:53.439Z,19.30
2022-08-19T06:40:20.562Z,19.40
2022-08-19T06:42:54.901Z,19.40
2022-08-19T06:45:24.964Z,19.40
2022-08-19T06:48:01.691Z,19.50
2022-08-19T06:50:28.715Z,19.60
2022-08-19T06:52:55.822Z,19.70
2022-08-19T06:55:23.063Z,19.80
2022-08-19T06:57:54.241Z,19.80
2022-08-19T07:00:21.837Z,19.90
2022-08-19T07:02:54.276Z,20.10
2022-08-19T07:05:26.344Z,20.20
2022-08-19T07:07:53.317Z,20.20
2022-08-19T07:10:24.802Z,20.50
2022-08-19T07:12:53.038Z,20.80
2022-08-19T07:15:22.122Z,21.10
2022-08-19T07:17:52.674Z,21.30
2022-08-19T07:20:20.167Z,21.40
2022-08-19T07:22:47.228Z,21.70
2022-08-19T07:25:14.436Z,21.70
2022-08-19T07:27:41.288Z,21.50
2022-08-19T07:30:14.277Z,21.60
2022-08-19T07:32:41.863Z,21.70
2022-08-19T07:35:10.452Z,21.60
2022-08-19T07:37:39.143Z,21.70
2022-08-19T07:40:09.809Z,21.70
2022-08-19T07:42:36.968Z,21.80
2022-08-19T07:45:07.878Z,21.60
2022-08-19T07:47:49.644Z,21.50
2022-08-19T07:50:20.966Z,21.40
2022-08-19T07:52:50.688Z,21.40
2022-08-19T07:55:41.764Z,21.20
2022-08-19T07:58:14.472Z,20.70
2022-08-19T08:04:17.065Z,20.40
2022-08-19T08:07:03.137Z,20.40
2022-08-19T08:09:39.430Z,20.20
2022-08-19T08:12:34.270Z,20.20
2022-08-19T08:15:08.872Z,20.10
2022-08-19T08:17:49.611Z,20.30
2022-08-19T08:20:20.514Z,20.50
2022-08-19T08:23:07.584Z,20.60
2022-08-19T08:25:37.105Z,20.50
2022-08-19T08:28:05.318Z,20.50
2022-08-19T08:30:34.117Z,20.60
2022-08-19T08:33:02.509Z,20.60
2022-08-19T08:35:30.071Z,20.60
2022-08-19T08:37:57.682Z,20.60
2022-08-19T08:40:45.341Z,20.60
2022-08-19T08:43:44.392Z,20.50
2022-08-19T08:46:30.664Z,20.40
2022-08-19T08:49:31.646Z,20.50
2022-08-19T08:52:16.334Z,20.60
2022-08-19T08:54:54.978Z,20.60
2022-08-19T08:57:49.653Z,20.70
2022-08-19T09:00:31.629Z,20.70
2022-08-19T09:03:02.770Z,20.70
2022-08-19T09:06:01.081Z,20.70
2022-08-19T09:09:12.080Z,20.50
2022-08-19T09:12:08.081Z,20.40
2022-08-19T09:15:02.066Z,20.40
2022-08-19T09:17:36.287Z,20.50
2022-08-19T09:20:26.153Z,20.70
2022-08-19T09:22:53.349Z,20.90
2022-08-19T09:25:24.804Z,21.20
2022-08-19T09:28:02.750Z,21.30
2022-08-19T09:30:40.763Z,21.40
2022-08-19T09:33:09.165Z,21.50
2022-08-19T09:35:53.263Z,21.50
2022-08-19T09:38:22.333Z,21.60
2022-08-19T09:40:50.534Z,21.60
2022-08-19T09:43:33.104Z,21.60
2022-08-19T09:46:02.315Z,21.70
2022-08-19T09:48:29.692Z,21.30
2022-08-19T09:51:06.527Z,21.30
2022-08-19T09:53:33.529Z,21.20
2022-08-19T09:56:04.157Z,21.20
2022-08-19T09:58:32.252Z,21.10
2022-08-19T10:01:02.792Z,21.00
2022-08-19T10:03:33.855Z,20.80
2022-08-19T10:06:14.982Z,20.50
2022-08-19T10:08:49.918Z,20.50
2022-08-19T10:11:28.600Z,20.20
2022-08-19T10:14:06.664Z,20.10
2022-08-19T10:16:39.577Z,20.00
2022-08-19T10:19:07.027Z,19.90
2022-08-19T10:21:35.263Z,19.90
2022-08-19T10:24:06.504Z,20.20
2022-08-19T10:26:45.403Z,20.30
2022-08-19T10:29:31.927Z,20.40
2022-08-19T10:32:10.045Z,20.30
2022-08-19T10:34:48.486Z,20.20
2022-08-19T10:37:28.826Z,20.10
2022-08-19T10:39:59.549Z,20.00
2022-08-19T10:42:26.643Z,19.90
2022-08-19T10:44:53.543Z,19.80
2022-08-19T10:47:25.591Z,19.70
2022-08-19T10:50:14.064Z,19.60
2022-08-19T10:52:49.865Z,19.50
2022-08-19T10:55:42.021Z,19.40
2022-08-19T10:58:26.254Z,19.40
2022-08-19T11:00:58.846Z,19.40
2022-08-19T11:03:30.003Z,19.40
2022-08-19T11:06:09.607Z,19.40
2022-08-19T11:08:39.436Z,19.40
2022-08-19T11:11:09.188Z,19.40
2022-08-19T11:13:43.628Z,19.50
2022-08-19T11:16:19.088Z,19.60
2022-08-19T11:18:55.785Z,19.80
2022-08-19T11:21:40.746Z,19.90
2022-08-19T11:24:16.148Z,20.10
2022-08-19T11:26:45.599Z,20.30
2022-08-19T11:29:14.984Z,20.70
2022-08-19T11:31:47.804Z,21.00
2022-08-19T11:34:21.970Z,21.10
2022-08-19T11:36:52.577Z,21.20
2022-08-19T11:39:23.008Z,20.90
2022-08-19T11:41:50.329Z,21.00
2022-08-19T11:44:17.700Z,21.00
2022-08-19T11:46:47.356Z,21.30
2022-08-19T11:49:22.334Z,21.70
2022-08-19T11:51:51.528Z,21.90
2022-08-19T11:54:20.624Z,22.00
2022-08-19T11:56:48.906Z,21.70
2022-08-19T11:59:16.717Z,21.60
2022-08-19T12:01:44.371Z,21.60
2022-08-19T12:04:12.209Z,21.60
2022-08-19T12:06:42.036Z,21.80
2022-08-19T12:09:11.917Z,21.80
2022-08-19T12:11:41.353Z,21.70
2022-08-19T12:14:14.972Z,21.60
2022-08-19T12:16:50.919Z,21.60
2022-08-19T12:19:22.135Z,21.70
2022-08-19T12:21:51.806Z,22.00
2022-08-19T12:24:24.104Z,21.90
2022-08-19T12:26:53.228Z,21.80
2022-08-19T12:29:29.198Z,21.70
2022-08-19T12:32:01.969Z,21.40
2022-08-19T12:34:34.047Z,21.30
2022-08-19T12:37:05.961Z,21.20
2022-08-19T12:39:42.219Z,20.90
2022-08-19T12:42:12.384Z,20.80
2022-08-19T12:44:43.389Z,20.70
2022-08-19T12:47:15.392Z,20.50
2022-08-19T12:49:55.258Z,20.50
2022-08-19T12:52:27.902Z,20.40
2022-08-19T12:54:59.010Z,20.20
2022-08-19T12:57:32.230Z,20.20
2022-08-19T13:00:18.618Z,20.10
2022-08-19T13:02:51.305Z,20.10
2022-08-19T13:05:34.186Z,20.10
2022-08-19T13:08:01.971Z,20.20
2022-08-19T13:10:35.632Z,20.20
2022-08-19T13:13:07.518Z,20.20
2022-08-19T13:15:40.498Z,20.30
2022-08-19T13:18:11.210Z,20.40
2022-08-19T13:20:41.572Z,20.70
2022-08-19T13:23:10.206Z,21.00
2022-08-19T13:25:37.683Z,21.40
2022-08-19T13:28:07.270Z,21.60
2022-08-19T13:30:52.815Z,21.40
2022-08-19T13:33:20.123Z,21.30
2022-08-19T13:36:01.387Z,21.20
2022-08-19T13:38:29.331Z,21.10
2022-08-19T13:40:56.772Z,21.00
2022-08-19T13:43:28.542Z,21.00
2022-08-19T13:45:57.236Z,21.30
2022-08-19T13:48:27.823Z,21.40
2022-08-19T13:50:55.673Z,21.30
2022-08-19T13:53:23.163Z,21.40
2022-08-19T13:55:51.923Z,21.20
2022-08-19T13:58:19.127Z,21.20
2022-08-19T14:00:47.738Z,20.90
2022-08-19T14:03:15.035Z,20.80
2022-08-19T14:05:42.134Z,20.90
2022-08-19T14:08:10.125Z,20.90
2022-08-19T14:10:37.196Z,20.80
2022-08-19T14:13:05.397Z,20.70
2022-08-19T14:15:35.254Z,20.50
2022-08-19T14:18:05.568Z,20.20
2022-08-19T14:20:40.160Z,19.80
2022-08-19T14:23:11.360Z,19.50
2022-08-19T14:25:42.795Z,19.20
2022-08-19T14:28:14.212Z,19.00
2022-08-19T14:30:46.962Z,18.90
2022-08-19T14:33:18.064Z,18.90
2022-08-19T14:35:48.853Z,18.90
2022-08-19T14:38:31.163Z,18.90
2022-08-19T14:41:18.980Z,18.90
2022-08-19T14:43:55.579Z,18.80
2022-08-19T14:46:31.381Z,18.60
2022-08-19T14:49:02.596Z,18.50
2022-08-19T14:51:41.036Z,18.40
2022-08-19T14:54:12.185Z,18.40
2022-08-19T14:56:45.802Z,18.40
2022-08-19T14:59:17.417Z,18.30
2022-08-19T15:01:48.312Z,18.40
2022-08-19T15:04:19.896Z,18.40
2022-08-19T15:06:53.677Z,18.30
2022-08-19T15:09:24.689Z,18.30
2022-08-19T15:11:55.381Z,18.30
2022-08-19T15:14:35.940Z,18.20
2022-08-19T15:17:08.493Z,18.30
2022-08-19T15:19:39.589Z,18.30
2022-08-19T15:22:10.358Z,18.40
2022-08-19T15:24:48.055Z,18.30
2022-08-19T15:27:19.524Z,18.30
2022-08-19T15:29:56.444Z,18.40
2022-08-19T15:32:33.221Z,18.30
2022-08-19T15:35:08.160Z,18.30
2022-08-19T15:37:38.923Z,18.40
2022-08-19T15:40:11.587Z,18.40
2022-08-19T15:42:46.065Z,18.40
2022-08-19T15:45:20.130Z,18.40
2022-08-19T15:47:51.287Z,18.40
2022-08-19T15:50:25.221Z,18.30
2022-08-19T15:53:07.271Z,18.20
2022-08-19T15:55:47.850Z,18.10
2022-08-19T15:58:37.562Z,18.10
2022-08-19T16:01:29.127Z,18.20
2022-08-19T16:04:22.466Z,18.10
2022-08-19T16:07:00.475Z,18.10
2022-08-19T16:09:36.187Z,18.10
2022-08-19T16:12:10.302Z,18.10
2022-08-19T16:14:41.314Z,18.10
2022-08-19T16:17:13.842Z,18.10
2022-08-19T16:19:44.142Z,18.00
2022-08-19T16:22:15.188Z,18.00
2022-08-19T16:24:46.643Z,18.00
2022-08-19T16:27:20.906Z,18.10
2022-08-19T16:29:51.588Z,18.00
2022-08-19T16:32:23.243Z,18.00
2022-08-19T16:34:54.383Z,17.90
2022-08-19T16:37:25.819Z,17.90
2022-08-19T16:39:56.904Z,17.90
2022-08-19T16:42:28.122Z,17.90
2022-08-19T16:44:59.587Z,17.90
2022-08-19T16:47:30.867Z,17.80
2022-08-19T16:50:01.844Z,17.80
2022-08-19T16:52:33.844Z,17.80
2022-08-19T16:55:06.793Z,17.80
2022-08-19T16:57:38.087Z,17.80
2022-08-19T17:00:13.016Z,17.80
2022-08-19T17:02:44.537Z,17.70
2022-08-19T17:05:16.468Z,17.70
2022-08-19T17:07:47.371Z,17.60
2022-08-19T17:10:18.415Z,17.60
2022-08-19T17:12:46.116Z,17.50
2022-08-19T17:15:14.595Z,17.50
2022-08-19T17:17:46.599Z,17.50
2022-08-19T17:20:17.398Z,17.50
2022-08-19T17:22:44.905Z,17.50
2022-08-19T17:25:13.256Z,17.40
2022-08-19T17:27:45.079Z,17.40
2022-08-19T17:30:16.170Z,17.30
2022-08-19T17:32:46.667Z,17.20
2022-08-19T17:35:21.128Z,17.20
2022-08-19T17:37:51.294Z,17.20
2022-08-19T17:40:23.789Z,17.20
2022-08-19T17:42:52.540Z,17.20
2022-08-19T17:45:20.608Z,17.20
2022-08-19T17:47:48.272Z,17.20
2022-08-19T17:50:16.424Z,17.20
2022-08-19T17:52:44.224Z,17.10
2022-08-19T17:55:11.856Z,17.10
2022-08-19T17:57:46.112Z,17.00
2022-08-19T18:00:16.244Z,17.00
2022-08-19T18:03:00.280Z,17.00
2022-08-19T18:05:34.452Z,16.90
2022-08-19T18:08:01.844Z,16.90
2022-08-19T18:10:35.332Z,16.80
2022-08-19T18:13:02.454Z,16.80
2022-08-19T18:15:44.685Z,16.80
2022-08-19T18:18:14.997Z,16.80
2022-08-19T18:20:44.336Z,16.70
2022-08-19T18:23:41.287Z,16.70
2022-08-19T18:25:58.424Z,16.60
2022-08-19T18:28:25.734Z,16.60
2022-08-19T18:30:53.353Z,16.60
2022-08-19T18:33:20.885Z,16.50
2022-08-19T18:35:52.772Z,16.50
2022-08-19T18:38:41.610Z,16.50
2022-08-19T18:41:28.049Z,16.40
2022-08-19T18:44:13.593Z,16.40
2022-08-19T18:46:59.402Z,16.30
2022-08-19T18:49:33.189Z,16.30
2022-08-19T18:52:03.114Z,16.30
2022-08-19T18:54:30.641Z,16.30
2022-08-19T18:56:57.981Z,16.30
2022-08-19T18:59:28.811Z,16.30
2022-08-19T19:02:00.257Z,16.30
2022-08-19T19:04:33.969Z,16.30
2022-08-19T19:07:01.114Z,16.30
2022-08-19T19:09:28.665Z,16.30
2022-08-19T19:12:01.451Z,16.30
2022-08-19T19:14:50.976Z,16.40
2022-08-19T19:17:18.533Z,16.30
2022-08-19T19:19:45.684Z,16.30
2022-08-19T19:22:19.878Z,16.30
2022-08-19T19:24:46.900Z,16.40
2022-08-19T19:27:20.134Z,16.40
2022-08-19T19:29:52.296Z,16.40
2022-08-19T19:32:38.777Z,16.40
2022-08-19T19:35:10.458Z,16.40
2022-08-19T19:37:37.413Z,16.40
2022-08-19T19:40:05.018Z,16.40
2022-08-19T19:42:31.996Z,16.30
2022-08-19T19:45:00.295Z,16.20
2022-08-19T19:47:28.328Z,16.20
2022-08-19T19:50:14.634Z,16.20
2022-08-19T19:52:46.831Z,16.20
2022-08-19T19:55:18.227Z,16.20
2022-08-19T19:57:50.170Z,16.30
2022-08-19T20:00:18.993Z,16.30
2022-08-19T20:02:50.135Z,16.30
2022-08-19T20:05:22.834Z,16.30
2022-08-19T20:08:11.363Z,16.40
2022-08-19T20:10:41.215Z,16.30
2022-08-19T20:13:10.255Z,16.30
2022-08-19T20:15:42.628Z,16.30
2022-08-19T20:18:14.188Z,16.30
2022-08-19T20:20:43.351Z,16.30
2022-08-19T20:23:10.827Z,16.30
2022-08-19T20:25:38.981Z,16.30
2022-08-19T20:28:05.911Z,16.30
2022-08-19T20:30:33.339Z,16.30
2022-08-19T20:33:04.429Z,16.40
2022-08-19T20:35:31.319Z,16.40
2022-08-19T20:38:03.573Z,16.40
2022-08-19T20:40:32.164Z,16.30
2022-08-19T20:42:59.043Z,16.30
2022-08-19T20:45:33.065Z,16.30
2022-08-19T20:48:05.187Z,16.30
2022-08-19T20:50:36.224Z,16.30
2022-08-19T20:53:17.259Z,16.30
2022-08-19T20:55:49.191Z,16.30
2022-08-19T20:58:23.168Z,16.20
2022-08-19T21:00:57.743Z,16.30
2022-08-19T21:03:35.000Z,16.20
2022-08-19T21:06:13.801Z,16.20
2022-08-19T21:08:41.694Z,16.20
2022-08-19T21:11:10.367Z,16.20
2022-08-19T21:13:37.744Z,16.20
2022-08-19T21:16:05.304Z,16.10
2022-08-19T21:18:36.641Z,16.10
2022-08-19T21:21:04.371Z,16.00
2022-08-19T21:23:32.852Z,16.00
2022-08-19T21:26:01.812Z,16.00
2022-08-19T21:28:36.444Z,15.90
2022-08-19T21:31:06.992Z,15.90
2022-08-19T21:33:34.334Z,15.90
2022-08-19T21:36:02.476Z,15.90
2022-08-19T21:38:30.147Z,15.90
2022-08-19T21:40:57.573Z,15.90
2022-08-19T21:43:25.068Z,15.90
2022-08-19T21:45:51.970Z,15.90
2022-08-19T21:48:19.389Z,15.90
2022-08-19T21:50:48.351Z,15.90
2022-08-19T21:53:19.432Z,15.80
2022-08-19T21:55:53.697Z,15.80
2022-08-19T21:58:28.259Z,15.80
2022-08-19T22:01:06.100Z,15.90
2022-08-19T22:03:37.101Z,15.90
2022-08-19T22:06:04.857Z,16.00
2022-08-19T22:08:31.884Z,16.00
2022-08-19T22:11:01.517Z,16.00
2022-08-19T22:13:36.837Z,15.90
2022-08-19T22:16:08.301Z,15.90
2022-08-19T22:18:35.366Z,15.90
2022-08-19T22:21:06.412Z,15.90
2022-08-19T22:23:36.673Z,15.90
2022-08-19T22:26:03.685Z,15.90
2022-08-19T22:28:30.597Z,15.90
2022-08-19T22:30:57.790Z,15.90
2022-08-19T22:33:27.452Z,15.90
2022-08-19T22:35:54.493Z,16.00
2022-08-19T22:38:22.782Z,16.00
2022-08-19T22:40:52.242Z,15.90
2022-08-19T22:43:31.734Z,15.90
2022-08-19T22:46:00.580Z,15.90
2022-08-19T22:48:32.448Z,15.90
2022-08-19T22:51:19.336Z,15.90
2022-08-19T22:53:48.078Z,15.90
2022-08-19T22:56:18.778Z,15.90
2022-08-19T22:58:50.112Z,16.00
2022-08-19T23:01:27.433Z,16.00
2022-08-19T23:03:59.274Z,16.00
2022-08-19T23:06:33.286Z,16.00
2022-08-19T23:09:06.788Z,16.00
2022-08-19T23:11:41.904Z,16.00
2022-08-19T23:14:11.224Z,16.00
2022-08-19T23:16:38.650Z,16.00
2022-08-19T23:19:07.200Z,16.10
2022-08-19T23:21:36.067Z,16.10
2022-08-19T23:24:04.379Z,16.10
2022-08-19T23:26:35.599Z,16.20
2022-08-19T23:29:24.236Z,16.20
2022-08-19T23:31:51.419Z,16.20
2022-08-19T23:34:18.342Z,16.20
2022-08-19T23:36:46.179Z,16.20
2022-08-19T23:39:13.166Z,16.30
2022-08-19T23:41:40.124Z,16.30
2022-08-19T23:44:07.046Z,16.30
2022-08-19T23:46:55.009Z,16.30
2022-08-19T23:49:25.017Z,16.30
2022-08-19T23:51:54.446Z,16.30
2022-08-19T23:54:21.908Z,16.30
2022-08-19T23:57:01.279Z,16.30
2022-08-19T23:59:28.164Z,16.20
